Meridian, MS (39305)

9:10 PM CST en Marzo 02, 2015 (GMT -0600)
APRSWXNET Meridian MS US | Change Station
CLOSE
Current Station
Estación meteorológica personal
Location: Meridian, MS
Altura: 327 ft
Estaciones meteorológicas cercanas
Aviso en curso: Dense Fog Advisory

Alt 327 ft 32.42 °N, 88.75 °W | Updated 40 minutes ago

Nublado
Nublado
52 ° F
Sensación térmica 52 ° F
N
0
Viento Variable Viento desde NNO
Gusts 0.0 mph

Hoy
Alta -- | Baja -- ° F
--% Posibilidad de precipitaciones
Ayer
Alta -- | Baja -- ° F
Precip. -- pul
6:21 AM 5:52 PM
Gibosa creciente, 94% visible
Presión 30.25 pul
Visibilidad 7.0 Millas
Nubes Nublado 400 ft
Punto de rocío 52 ° F
Humedad 100%
Precipitaciones 0.32 pul
Espesor de la nieve No disponible.
UV 0 de una escala de 12
Polen 3.40 de una escala de 12
Calidad del aire No disponible.
Flu Activity No disponible.
METAR KMEI 030258Z 03006KT 7SM -RA OVC004 12/11 A3025 RMK AO2 RAB0159 SLP244 P0004 60004 T01170111 53004

More Conditions Fewer Conditions

Presión 30.25 pul
Visibilidad 7.0 Millas
Nubes Nublado 400 ft
Punto de rocío 52 ° F
Humedad 100%
Precipitaciones 0.32 pul
Espesor de la nieve No disponible.
UV 0 de una escala de 12
Polen 3.40 de una escala de 12
Calidad del aire No disponible.
Flu Activity No disponible.
METAR KMEI 030258Z 03006KT 7SM -RA OVC004 12/11 A3025 RMK AO2 RAB0159 SLP244 P0004 60004 T01170111 53004

More Conditions Fewer Conditions

10-Day Weather Forecast

Almanac

Astronomía

Mar. 02, 2015 Salida Puesta
Hora real
Crepúsculo civil
Crepúsculo náutico
Crepúsculo astronómico
Luna
Horas de luz
Horas de luz
Tomorrow will be .
, % of the Moon is Illuminated

Extremos de hoy

Máximos del estado Bajos del estado

Community

WunderPhotos

Upload Photos

1,802,057 ¡fotos cargadas!

WunderBlogs® & News

Nearby

Calidad del aire

  Calidad del aire Índice AQ Contaminante
Not available.

Grosos de nieve

Estación Profundido Altura

Actividad de terremotos

Ciudad Distance Mag. Tiempo y dato
Magnitud mínima muestra es 2,5.

Temperaturas de aguas costeras

Lugar Temperatura

Estaciones meteorológicas cercanas

Dense Fog Advisory
Statement as of 9:03 PM CST en Marzo 02, 2015

... Dense fog advisory remains in effect until 9 am CST Tuesday...

A dense fog advisory remains in effect until 9 am CST Tuesday.

* Visibility... less than one-quarter of a mile

* impacts... reduced visibility will create hazardous travel.
Local fluctuations in visibility can be expected... .so
motorists may encounter rapid visibility reductions.

Precautionary/preparedness actions...

A dense fog advisory means visibilities will frequently be
reduced to less than one quarter mile. If driving... slow down...
use your headlights... and leave plenty of distance ahead of you.